Time;durP1;ratioP1;P1;durP2;ratioP2;P2;SDS_P1;SDS_P2;PMS_P1;PMS_P2;Temp;Humidity;BMP_temperature;BMP_pressure;BME280_temperature;BME280_humidity;BME280_pressure;Samples;Min_cycle;Max_cycle;Signal;HPM_P1;HPM_P2
2022/05/27 00:00:44;;;;;;;0.50;0.50;;;12.30;1.00;;;;;;5046166;28;20203;-78
2022/05/27 00:03:11;;;;;;;0.40;0.40;;;12.30;1.00;;;;;;5047447;28;20278;-78
2022/05/27 00:05:37;;;;;;;0.50;0.50;;;12.40;1.00;;;;;;5048809;28;20196;-79
2022/05/27 00:08:03;;;;;;;0.50;0.50;;;12.30;1.00;;;;;;5048072;28;20175;-79
2022/05/27 00:10:28;;;;;;;0.43;0.43;;;12.30;1.00;;;;;;5048371;28;20191;-79
2022/05/27 00:12:54;;;;;;;0.60;0.60;;;12.20;1.00;;;;;;5048232;28;20191;-78
2022/05/27 00:15:19;;;;;;;0.50;0.50;;;12.20;10.00;;;;;;5047419;28;20279;-85
2022/05/27 00:17:45;;;;;;;0.40;0.40;;;12.10;18.10;;;;;;5047372;28;20251;-78
2022/05/27 00:20:11;;;;;;;0.40;0.40;;;12.10;8.60;;;;;;5048266;28;20579;-79
2022/05/27 00:22:37;;;;;;;0.53;0.53;;;12.10;19.20;;;;;;5047884;28;20214;-78
2022/05/27 00:25:03;;;;;;;0.50;0.50;;;12.10;12.20;;;;;;5047005;28;20192;-78
2022/05/27 00:27:29;;;;;;;0.50;0.50;;;12.10;1.00;;;;;;5046070;28;20259;-78
2022/05/27 00:29:54;;;;;;;0.40;0.40;;;12.00;1.00;;;;;;5046820;28;20188;-78
2022/05/27 00:32:20;;;;;;;0.40;0.40;;;12.00;1.00;;;;;;5048179;28;20206;-79
2022/05/27 00:34:46;;;;;;;0.47;0.47;;;12.00;1.00;;;;;;5052672;28;20211;-79
2022/05/27 00:37:12;;;;;;;0.50;0.50;;;11.90;1.00;;;;;;5053390;28;20180;-79
2022/05/27 00:39:38;;;;;;;0.50;0.50;;;11.90;1.00;;;;;;5053026;28;20286;-77
2022/05/27 00:42:05;;;;;;;0.40;0.40;;;11.90;1.00;;;;;;5051904;28;20210;-79
2022/05/27 00:44:30;;;;;;;0.50;0.50;;;11.80;1.00;;;;;;5052674;28;20429;-78
2022/05/27 00:47:03;;;;;;;0.40;0.40;;;11.80;1.00;;;;;;5054222;28;20202;-77
2022/05/27 00:49:29;;;;;;;0.60;0.60;;;11.80;1.00;;;;;;5053146;28;20179;-78
2022/05/27 00:52:09;;;;;;;0.40;0.40;;;11.80;1.00;;;;;;5053713;28;20525;-79
2022/05/27 00:54:36;;;;;;;0.50;0.50;;;11.80;1.00;;;;;;5051991;28;20172;-79
2022/05/27 00:57:17;;;;;;;0.60;0.60;;;11.70;1.00;;;;;;5051938;28;20222;-78
2022/05/27 00:59:50;;;;;;;0.50;0.50;;;11.70;1.00;;;;;;5052415;28;20193;-77
2022/05/27 01:02:17;;;;;;;0.40;0.40;;;11.70;1.00;;;;;;5049022;28;20271;-78
2022/05/27 01:04:43;;;;;;;0.50;0.50;;;11.70;1.00;;;;;;5047339;28;20183;-77
2022/05/27 01:07:09;;;;;;;0.43;0.43;;;11.60;1.00;;;;;;5047000;28;20286;-78
2022/05/27 01:09:38;;;;;;;0.50;0.50;;;11.60;1.00;;;;;;5046214;28;20176;-79
2022/05/27 01:12:41;;;;;;;0.50;0.50;;;11.50;1.00;;;;;;5048754;28;20191;-79
2022/05/27 01:15:16;;;;;;;0.40;0.40;;;11.50;1.00;;;;;;5050593;28;20215;-79
2022/05/27 01:18:02;;;;;;;0.40;0.40;;;11.50;1.00;;;;;;5058100;28;20168;-78
2022/05/27 01:20:42;;;;;;;0.40;0.40;;;11.40;1.00;;;;;;5052363;28;20176;-77
2022/05/27 01:23:45;;;;;;;0.60;0.60;;;11.40;1.00;;;;;;5058363;28;20164;-77
2022/05/27 01:26:28;;;;;;;0.50;0.50;;;11.40;1.00;;;;;;5050483;28;20182;-77
2022/05/27 01:29:39;;;;;;;0.50;0.50;;;11.40;1.00;;;;;;5048437;28;20175;-77
2022/05/27 01:32:11;;;;;;;0.60;0.60;;;11.40;1.00;;;;;;5047160;28;20286;-77
2022/05/27 01:35:07;;;;;;;0.40;0.40;;;11.40;9.70;;;;;;5043341;28;20176;-78
2022/05/27 01:37:47;;;;;;;0.60;0.60;;;11.40;2.80;;;;;;5045518;28;20204;-77
2022/05/27 01:40:25;;;;;;;0.50;0.50;;;11.40;1.00;;;;;;5046659;28;20171;-78
2022/05/27 01:42:59;;;;;;;0.60;0.60;;;11.30;1.00;;;;;;5050216;28;20265;-78
2022/05/27 01:45:32;;;;;;;0.50;0.50;;;11.30;9.80;;;;;;5050670;28;20176;-77
2022/05/27 01:48:03;;;;;;;0.50;0.50;;;11.30;13.70;;;;;;5055772;28;20233;-77
2022/05/27 01:50:54;;;;;;;0.50;0.50;;;11.30;22.80;;;;;;5055733;28;20248;-77
2022/05/27 01:53:40;;;;;;;0.50;0.50;;;11.30;25.70;;;;;;5056247;28;20180;-76
2022/05/27 01:56:50;;;;;;;0.60;0.60;;;11.30;46.70;;;;;;5054480;28;20204;-78
2022/05/27 01:59:27;;;;;;;0.40;0.40;;;11.10;76.00;;;;;;5047215;28;20258;-77
2022/05/27 02:01:59;;;;;;;0.50;0.50;;;11.10;93.50;;;;;;5046303;28;20203;-78
2022/05/27 02:04:39;;;;;;;0.53;0.53;;;11.10;96.00;;;;;;5044988;28;20195;-78
2022/05/27 02:07:11;;;;;;;0.40;0.40;;;11.10;92.20;;;;;;5046943;28;20185;-78
2022/05/27 02:09:53;;;;;;;0.40;0.40;;;11.10;87.70;;;;;;5052397;28;20172;-77
2022/05/27 02:12:36;;;;;;;0.50;0.50;;;11.00;84.80;;;;;;5052752;28;20230;-78
2022/05/27 02:15:10;;;;;;;0.50;0.50;;;11.00;65.80;;;;;;5050007;28;20180;-78
2022/05/27 02:17:41;;;;;;;0.50;0.50;;;11.00;41.70;;;;;;5052460;28;20168;-77
2022/05/27 02:20:27;;;;;;;0.60;0.60;;;11.00;25.10;;;;;;5054750;28;20184;-77
2022/05/27 02:22:58;;;;;;;0.50;0.50;;;11.00;8.80;;;;;;5054419;28;20199;-77
2022/05/27 02:25:34;;;;;;;0.47;0.47;;;11.00;7.70;;;;;;5054473;28;20164;-77
2022/05/27 02:28:08;;;;;;;0.50;0.50;;;11.00;1.00;;;;;;5053780;28;20247;-77
2022/05/27 02:30:36;;;;;;;0.50;0.50;;;11.00;1.00;;;;;;5050568;28;20186;-78
2022/05/27 02:36:05;;;;;;;0.53;0.53;;;10.90;22.20;;;;;;5050180;28;20218;-77
2022/05/27 02:38:31;;;;;;;0.60;0.60;;;10.90;43.30;;;;;;5050212;28;20171;-77
2022/05/27 02:41:02;;;;;;;0.50;0.50;;;10.90;46.50;;;;;;5050766;28;20207;-77
2022/05/27 02:43:43;;;;;;;0.50;0.50;;;10.90;30.00;;;;;;5051305;28;20179;-78
2022/05/27 02:46:49;;;;;;;0.50;0.50;;;10.90;27.70;;;;;;5040198;28;20258;-77
2022/05/27 02:49:23;;;;;;;0.50;0.50;;;10.70;39.00;;;;;;5040641;28;20194;-77
2022/05/27 02:52:07;;;;;;;0.60;0.60;;;10.70;21.60;;;;;;5055544;28;20178;-78
2022/05/27 02:54:57;;;;;;;0.60;0.60;;;10.60;85.10;;;;;;5056579;28;20652;-78
2022/05/27 02:57:48;;;;;;;0.60;0.60;;;10.60;99.90;;;;;;5055972;28;20317;-78
2022/05/27 03:00:19;;;;;;;0.50;0.50;;;10.60;99.90;;;;;;5056929;28;20350;-79
2022/05/27 03:02:46;;;;;;;0.67;0.67;;;10.60;54.10;;;;;;5057625;28;20188;-80
2022/05/27 03:05:15;;;;;;;0.67;0.67;;;10.60;64.10;;;;;;5057576;28;20175;-81
2022/05/27 03:07:41;;;;;;;0.60;0.60;;;10.50;71.30;;;;;;5057609;28;20251;-79
2022/05/27 03:10:35;;;;;;;0.63;0.63;;;10.50;65.70;;;;;;5056851;28;20195;-80
2022/05/27 03:13:10;;;;;;;0.50;0.50;;;10.50;74.90;;;;;;5057419;28;20176;-80
2022/05/27 03:16:13;;;;;;;0.60;0.60;;;10.50;74.80;;;;;;5057284;28;20199;-79
2022/05/27 03:19:01;;;;;;;0.60;0.60;;;10.50;90.20;;;;;;5057797;28;20191;-80
2022/05/27 03:21:49;;;;;;;0.57;0.57;;;10.60;78.50;;;;;;5057451;28;20195;-80
2022/05/27 03:24:24;;;;;;;0.60;0.60;;;10.60;99.90;;;;;;5057577;28;20198;-78
2022/05/27 03:27:18;;;;;;;0.73;0.73;;;10.60;99.90;;;;;;5057564;28;20179;-80
2022/05/27 03:29:56;;;;;;;0.50;0.50;;;10.50;99.90;;;;;;5056982;28;20172;-80
2022/05/27 03:32:30;;;;;;;0.50;0.50;;;10.60;99.90;;;;;;5056948;28;20199;-78
2022/05/27 03:35:22;;;;;;;0.60;0.60;;;10.70;99.90;;;;;;5056898;28;20179;-78
2022/05/27 03:38:19;;;;;;;0.50;0.50;;;10.70;99.90;;;;;;5056818;28;20238;-78
2022/05/27 03:40:48;;;;;;;0.50;0.50;;;10.70;99.90;;;;;;5056683;28;20192;-75
2022/05/27 03:43:15;;;;;;;0.60;0.60;;;10.70;99.90;;;;;;5057041;28;20227;-76
2022/05/27 03:46:08;;;;;;;0.50;0.50;;;10.80;99.90;;;;;;5057030;28;20240;-77
2022/05/27 03:48:36;;;;;;;0.50;0.50;;;10.80;99.90;;;;;;5056598;28;20188;-76
2022/05/27 03:51:18;;;;;;;0.60;0.60;;;10.90;99.90;;;;;;5056500;28;20184;-77
2022/05/27 03:56:28;;;;;;;0.50;0.50;;;11.00;99.90;;;;;;5057151;28;20198;-77
2022/05/27 03:58:54;;;;;;;0.57;0.57;;;11.10;99.90;;;;;;5057169;28;20160;-78
2022/05/27 04:01:25;;;;;;;0.40;0.40;;;11.10;99.90;;;;;;5065175;22;20223;-80
2022/05/27 04:03:51;;;;;;;0.50;0.50;;;11.10;99.90;;;;;;5014207;28;20601;-80
2022/05/27 04:06:17;;;;;;;0.53;0.53;;;11.10;99.90;;;;;;5014040;28;20183;-80
2022/05/27 04:08:42;;;;;;;0.40;0.40;;;11.20;99.90;;;;;;5013914;28;20181;-80
2022/05/27 04:11:08;;;;;;;0.50;0.50;;;11.20;99.90;;;;;;5014545;28;20256;-78
2022/05/27 04:13:33;;;;;;;0.50;0.50;;;11.30;99.90;;;;;;5014958;28;20584;-79
2022/05/27 04:15:59;;;;;;;0.50;0.50;;;11.30;99.90;;;;;;5014197;28;20265;-76
2022/05/27 04:18:24;;;;;;;0.50;0.50;;;11.40;99.90;;;;;;5013667;28;20191;-78
2022/05/27 04:20:50;;;;;;;0.50;0.50;;;11.40;99.90;;;;;;5013401;28;20267;-78
2022/05/27 04:23:15;;;;;;;0.50;0.50;;;11.50;99.90;;;;;;5013729;28;20183;-78
2022/05/27 04:25:44;;;;;;;0.40;0.40;;;11.60;99.90;;;;;;5013950;28;20203;-78
2022/05/27 04:28:10;;;;;;;0.47;0.47;;;11.70;99.90;;;;;;5013602;28;20176;-77
2022/05/27 04:30:35;;;;;;;0.50;0.50;;;11.70;99.90;;;;;;5012367;28;20183;-76
2022/05/27 04:33:01;;;;;;;0.50;0.50;;;11.90;99.90;;;;;;5013863;28;20179;-78
2022/05/27 04:35:26;;;;;;;0.60;0.60;;;12.00;99.90;;;;;;5013303;28;20200;-78
2022/05/27 04:37:52;;;;;;;0.40;0.40;;;12.10;99.90;;;;;;5012878;28;20283;-77
2022/05/27 04:40:17;;;;;;;0.50;0.50;;;12.20;99.90;;;;;;5011767;28;20215;-78
2022/05/27 04:42:44;;;;;;;0.50;0.50;;;12.30;99.90;;;;;;5012360;28;20193;-84
2022/05/27 04:45:10;;;;;;;0.40;0.40;;;12.40;99.90;;;;;;5011743;28;20176;-77
2022/05/27 04:47:37;;;;;;;0.50;0.50;;;12.50;99.90;;;;;;5012652;28;20168;-76
2022/05/27 04:50:04;;;;;;;0.40;0.40;;;12.60;99.90;;;;;;5011921;28;21383;-76
2022/05/27 04:52:32;;;;;;;0.30;0.30;;;12.70;99.90;;;;;;5009896;28;20287;-77
2022/05/27 04:54:59;;;;;;;0.40;0.40;;;12.80;99.90;;;;;;5012608;28;20177;-76
2022/05/27 04:57:31;;;;;;;0.50;0.50;;;12.90;99.90;;;;;;5012189;28;20284;-76
2022/05/27 04:59:57;;;;;;;0.50;0.50;;;13.10;99.90;;;;;;5011205;28;20234;-77
2022/05/27 05:02:24;;;;;;;0.30;0.30;;;13.30;99.90;;;;;;5011351;28;20208;-76
2022/05/27 05:04:50;;;;;;;0.40;0.40;;;13.50;99.90;;;;;;5012160;28;20201;-76
2022/05/27 05:07:19;;;;;;;0.40;0.40;;;13.80;11.10;;;;;;5011344;28;20168;-77
2022/05/27 05:09:44;;;;;;;0.40;0.40;;;14.10;1.00;;;;;;5011083;28;20187;-77
2022/05/27 05:12:11;;;;;;;0.50;0.50;;;14.30;1.00;;;;;;5012304;28;20189;-77
2022/05/27 05:14:37;;;;;;;0.40;0.40;;;14.40;1.00;;;;;;5012528;28;20225;-76
2022/05/27 05:17:03;;;;;;;0.63;0.63;;;14.40;1.00;;;;;;5012319;28;20225;-76
2022/05/27 05:19:29;;;;;;;0.30;0.30;;;14.50;1.00;;;;;;5014401;28;20176;-77
2022/05/27 05:21:55;;;;;;;0.50;0.50;;;14.50;1.00;;;;;;5015755;28;20197;-77
2022/05/27 05:24:21;;;;;;;0.40;0.40;;;14.60;1.00;;;;;;5016455;28;20177;-77
2022/05/27 05:26:46;;;;;;;0.40;0.40;;;14.70;1.00;;;;;;5015988;28;20176;-76
2022/05/27 05:29:12;;;;;;;0.40;0.40;;;14.80;1.00;;;;;;5015582;28;20717;-76
2022/05/27 05:31:37;;;;;;;0.40;0.40;;;14.90;1.00;;;;;;5016252;28;20199;-77
2022/05/27 05:34:03;;;;;;;0.40;0.40;;;14.80;1.00;;;;;;5016463;28;20242;-76
2022/05/27 05:36:30;;;;;;;0.30;0.30;;;14.70;1.00;;;;;;5016356;28;20612;-77
2022/05/27 05:38:56;;;;;;;0.37;0.37;;;14.70;1.00;;;;;;5015608;28;20172;-77
2022/05/27 05:41:32;;;;;;;0.40;0.40;;;14.80;1.00;;;;;;5015801;28;20206;-78
2022/05/27 05:43:58;;;;;;;0.30;0.30;;;14.70;1.00;;;;;;5015900;28;20180;-77
2022/05/27 05:46:24;;;;;;;0.40;0.40;;;14.70;1.00;;;;;;5016743;28;20180;-77
2022/05/27 05:48:50;;;;;;;0.30;0.30;;;14.80;1.00;;;;;;5015942;28;20176;-77
2022/05/27 05:51:16;;;;;;;0.40;0.40;;;14.90;1.00;;;;;;5014728;28;20684;-77
2022/05/27 05:53:41;;;;;;;0.30;0.30;;;14.90;1.00;;;;;;5015839;28;20664;-78
2022/05/27 05:56:07;;;;;;;0.40;0.40;;;15.00;1.00;;;;;;5016527;28;20207;-77
2022/05/27 05:58:33;;;;;;;0.30;0.30;;;15.00;1.00;;;;;;5015707;28;20168;-77
2022/05/27 06:00:58;;;;;;;0.30;0.30;;;15.00;1.00;;;;;;5015162;28;20215;-77
2022/05/27 06:03:24;;;;;;;0.40;0.40;;;15.00;1.00;;;;;;5015197;28;20180;-76
2022/05/27 06:05:51;;;;;;;0.30;0.30;;;15.10;1.00;;;;;;5014733;28;20247;-76
2022/05/27 06:08:18;;;;;;;0.30;0.30;;;15.10;1.00;;;;;;5014529;28;20263;-77
2022/05/27 06:10:45;;;;;;;0.40;0.40;;;15.30;1.00;;;;;;5013800;28;20180;-76
2022/05/27 06:13:11;;;;;;;0.40;0.40;;;15.30;1.00;;;;;;5014553;28;20243;-76
2022/05/27 06:15:37;;;;;;;0.50;0.50;;;15.40;1.00;;;;;;5015692;28;20212;-76
2022/05/27 06:18:05;;;;;;;0.40;0.40;;;15.50;99.90;;;;;;5014832;28;20267;-77
2022/05/27 06:20:31;;;;;;;0.43;0.43;;;15.60;99.90;;;;;;5017588;28;20188;-77
2022/05/27 06:22:56;;;;;;;0.43;0.43;;;15.60;90.70;;;;;;5015973;28;20267;-76
2022/05/27 06:25:23;;;;;;;0.50;0.50;;;15.70;1.00;;;;;;5018525;28;20251;-76
2022/05/27 06:27:48;;;;;;;0.40;0.40;;;15.80;99.90;;;;;;5017410;28;20181;-76
2022/05/27 06:35:43;;;;;;;0.50;0.50;;;16.10;99.90;;;;;;5017360;28;20315;-76
2022/05/27 06:38:08;;;;;;;0.30;0.30;;;16.10;1.00;;;;;;5018528;28;20181;-76
2022/05/27 06:40:34;;;;;;;0.40;0.40;;;16.00;99.90;;;;;;5015646;28;20180;-77
2022/05/27 06:43:00;;;;;;;0.40;0.40;;;15.80;1.00;;;;;;5017312;28;20185;-77
2022/05/27 06:45:25;;;;;;;0.40;0.40;;;15.80;1.00;;;;;;5016222;28;20181;-77
2022/05/27 06:47:51;;;;;;;0.43;0.43;;;15.70;1.00;;;;;;5023716;28;20172;-77
2022/05/27 06:50:17;;;;;;;0.40;0.40;;;15.70;99.90;;;;;;5024176;28;20204;-78
2022/05/27 06:52:43;;;;;;;0.40;0.40;;;15.70;1.00;;;;;;5015914;28;20543;-76
2022/05/27 06:55:13;;;;;;;0.43;0.43;;;15.80;1.00;;;;;;5018034;28;20180;-77
2022/05/27 06:57:39;;;;;;;0.30;0.30;;;15.90;99.90;;;;;;5017058;28;20185;-77
2022/05/27 07:00:07;;;;;;;0.30;0.30;;;15.90;1.00;;;;;;5017429;28;20179;-77
2022/05/27 07:02:34;;;;;;;0.30;0.30;;;16.00;1.00;;;;;;5021978;28;20220;-80
2022/05/27 07:05:00;;;;;;;0.30;0.30;;;16.00;99.90;;;;;;5020670;28;20180;-77
2022/05/27 07:07:28;;;;;;;0.37;0.37;;;16.00;1.00;;;;;;5023397;28;20183;-77
2022/05/27 07:09:54;;;;;;;0.30;0.30;;;16.10;1.00;;;;;;5022913;28;20172;-78
2022/05/27 07:12:19;;;;;;;0.30;0.30;;;16.20;1.00;;;;;;5027009;28;20285;-78
2022/05/27 07:14:45;;;;;;;0.40;0.40;;;16.20;99.90;;;;;;5025183;28;20173;-77
2022/05/27 07:17:10;;;;;;;0.50;0.50;;;16.30;1.00;;;;;;5022027;28;20235;-77
2022/05/27 07:19:38;;;;;;;0.40;0.40;;;16.30;1.00;;;;;;5020263;28;20605;-77
2022/05/27 07:22:09;;;;;;;0.50;0.50;;;16.30;54.20;;;;;;5020321;28;20565;-78
2022/05/27 07:24:36;;;;;;;0.30;0.30;;;16.30;1.00;;;;;;5020776;28;20181;-78
2022/05/27 07:27:02;;;;;;;0.30;0.30;;;16.30;1.00;;;;;;5021283;28;20188;-77
2022/05/27 07:29:28;;;;;;;0.40;0.40;;;16.40;1.00;;;;;;5020420;28;20593;-77
2022/05/27 07:31:54;;;;;;;0.40;0.40;;;16.30;1.00;;;;;;5017649;28;20185;-77
2022/05/27 07:34:19;;;;;;;0.40;0.40;;;16.30;99.90;;;;;;5021555;28;20700;-77
2022/05/27 07:36:45;;;;;;;0.60;0.60;;;16.40;1.00;;;;;;5019145;28;20215;-77
2022/05/27 07:39:10;;;;;;;0.40;0.40;;;16.40;1.00;;;;;;5021681;28;20638;-78
2022/05/27 07:41:37;;;;;;;0.40;0.40;;;16.50;1.00;;;;;;5021531;28;20196;-78
2022/05/27 07:44:04;;;;;;;0.40;0.40;;;16.50;1.00;;;;;;5020102;28;20173;-78
2022/05/27 07:46:32;;;;;;;0.40;0.40;;;16.60;1.00;;;;;;5020548;28;20184;-77
2022/05/27 07:48:58;;;;;;;0.33;0.33;;;16.50;1.00;;;;;;5019534;28;20177;-77
2022/05/27 07:51:24;;;;;;;0.50;0.50;;;16.60;99.90;;;;;;5020043;28;20581;-78
2022/05/27 07:53:49;;;;;;;0.50;0.50;;;16.60;99.90;;;;;;5018301;28;20181;-77
2022/05/27 07:56:15;;;;;;;0.20;0.20;;;16.70;1.00;;;;;;5020230;28;20207;-78
2022/05/27 07:58:41;;;;;;;0.33;0.33;;;16.70;99.90;;;;;;5002815;28;20531;-77
2022/05/27 08:01:07;;;;;;;0.40;0.40;;;16.70;99.90;;;;;;5019850;28;20703;-78
2022/05/27 08:03:33;;;;;;;0.40;0.40;;;16.70;99.90;;;;;;5018413;28;20200;-77
2022/05/27 08:05:59;;;;;;;0.30;0.30;;;16.70;99.90;;;;;;5018652;28;20181;-77
2022/05/27 08:08:25;;;;;;;0.30;0.30;;;16.80;99.90;;;;;;5017974;28;20184;-77
2022/05/27 08:10:52;;;;;;;0.40;0.40;;;16.80;99.90;;;;;;5018120;28;20187;-81
2022/05/27 08:13:18;;;;;;;0.40;0.40;;;16.80;1.00;;;;;;5019159;28;20191;-78
2022/05/27 08:15:43;;;;;;;0.30;0.30;;;16.90;1.00;;;;;;5019157;28;20299;-77
2022/05/27 08:18:09;;;;;;;0.30;0.30;;;16.90;1.00;;;;;;5020777;28;20177;-78
2022/05/27 08:20:37;;;;;;;0.50;0.50;;;17.10;1.00;;;;;;5018702;28;20177;-77
2022/05/27 08:23:03;;;;;;;0.30;0.30;;;17.20;1.00;;;;;;5016971;28;20184;-77
2022/05/27 08:25:30;;;;;;;0.30;0.30;;;17.30;1.00;;;;;;5018732;28;20298;-77
2022/05/27 08:27:56;;;;;;;0.40;0.40;;;17.40;1.00;;;;;;5018723;28;20191;-78
2022/05/27 08:30:26;;;;;;;0.30;0.30;;;17.30;1.00;;;;;;5017098;28;20184;-77
2022/05/27 08:32:51;;;;;;;0.30;0.30;;;17.30;28.10;;;;;;5019252;28;20283;-78
2022/05/27 08:38:07;;;;;;;0.40;0.40;;;17.30;1.00;;;;;;5017362;28;20195;-78
2022/05/27 08:40:57;;;;;;;0.30;0.30;;;17.30;99.90;;;;;;5018154;28;20192;-77
2022/05/27 08:43:48;;;;;;;0.40;0.40;;;17.20;1.00;;;;;;5020232;28;20172;-77
2022/05/27 08:46:39;;;;;;;0.30;0.30;;;17.20;99.90;;;;;;5019047;28;20597;-77
2022/05/27 08:49:08;;;;;;;0.30;0.30;;;17.20;99.90;;;;;;5015568;28;20192;-77
2022/05/27 08:51:46;;;;;;;0.30;0.30;;;17.20;99.90;;;;;;5016475;28;20287;-77
2022/05/27 08:54:20;;;;;;;0.30;0.30;;;17.10;1.00;;;;;;5021080;28;20184;-77
2022/05/27 08:59:45;;;;;;;0.40;0.40;;;17.00;99.90;;;;;;5021921;28;20234;-76
2022/05/27 09:02:32;;;;;;;0.40;0.40;;;17.10;1.00;;;;;;5021481;28;20216;-77
2022/05/27 09:05:33;;;;;;;0.40;0.40;;;17.20;99.90;;;;;;5021039;28;20183;-77
2022/05/27 09:08:15;;;;;;;0.40;0.40;;;17.50;1.00;;;;;;5025461;28;20191;-77
2022/05/27 09:10:59;;;;;;;0.30;0.30;;;17.70;1.00;;;;;;5024364;28;20183;-77
2022/05/27 09:13:47;;;;;;;0.30;0.30;;;18.00;99.90;;;;;;5019416;28;20179;-77
2022/05/27 09:16:36;;;;;;;0.40;0.40;;;18.20;82.30;;;;;;5019260;28;20678;-78
2022/05/27 09:19:32;;;;;;;0.30;0.30;;;18.30;1.00;;;;;;5018024;28;20200;-78
2022/05/27 09:22:22;;;;;;;0.30;0.30;;;18.50;1.00;;;;;;5019028;28;20704;-76
2022/05/27 09:25:15;;;;;;;0.30;0.30;;;18.60;1.00;;;;;;5019758;28;20176;-77
2022/05/27 09:27:59;;;;;;;0.30;0.30;;;18.80;1.00;;;;;;5019203;28;20180;-76
2022/05/27 09:30:26;;;;;;;0.33;0.33;;;19.00;1.00;;;;;;5022011;28;20211;-77
2022/05/27 09:33:07;;;;;;;0.40;0.40;;;19.30;99.90;;;;;;5027002;28;20256;-79
2022/05/27 09:35:52;;;;;;;0.30;0.30;;;19.30;92.30;;;;;;5023979;28;20220;-79
2022/05/27 09:38:21;;;;;;;0.30;0.30;;;19.70;99.90;;;;;;5021192;28;20176;-78
2022/05/27 09:40:55;;;;;;;0.37;0.37;;;20.10;1.00;;;;;;5024669;28;20177;-76
2022/05/27 09:43:40;;;;;;;0.37;0.37;;;20.90;1.00;;;;;;5017001;28;20208;-76
2022/05/27 09:46:11;;;;;;;0.30;0.30;;;21.60;1.00;;;;;;5016899;28;20181;-77
2022/05/27 09:48:36;;;;;;;0.30;0.30;;;21.60;1.00;;;;;;5015934;28;20173;-76
2022/05/27 09:51:06;;;;;;;0.30;0.30;;;21.30;1.00;;;;;;5016705;28;20312;-77
2022/05/27 09:53:45;;;;;;;0.27;0.27;;;21.60;1.00;;;;;;4997240;28;20183;-76
2022/05/27 09:56:13;;;;;;;0.40;0.40;;;22.40;1.00;;;;;;5015635;28;20222;-76
2022/05/27 09:58:44;;;;;;;0.30;0.30;;;22.70;1.00;;;;;;5018463;28;20172;-76
2022/05/27 10:01:23;;;;;;;0.40;0.40;;;22.70;1.00;;;;;;5022580;28;20213;-78
2022/05/27 10:04:07;;;;;;;0.30;0.30;;;22.60;1.00;;;;;;5030713;28;20187;-79
2022/05/27 10:06:35;;;;;;;0.40;0.40;;;22.50;1.00;;;;;;5030341;28;20244;-79
2022/05/27 10:09:05;;;;;;;0.30;0.30;;;22.10;1.00;;;;;;5030530;28;20595;-77
2022/05/27 10:11:46;;;;;;;0.30;0.30;;;21.80;1.00;;;;;;5025185;28;20208;-78
2022/05/27 10:14:29;;;;;;;0.30;0.30;;;21.80;1.00;;;;;;5021188;28;20184;-77
2022/05/27 10:17:13;;;;;;;0.40;0.40;;;21.30;1.00;;;;;;5017321;28;20224;-76
2022/05/27 10:19:47;;;;;;;0.30;0.30;;;21.20;1.00;;;;;;5018102;28;20195;-76
2022/05/27 10:22:28;;;;;;;0.40;0.40;;;21.10;1.00;;;;;;5018716;28;20219;-76
2022/05/27 10:24:59;;;;;;;0.30;0.30;;;21.20;1.00;;;;;;5017453;28;20180;-77
2022/05/27 10:27:43;;;;;;;0.30;0.30;;;20.90;1.00;;;;;;5018261;28;20180;-80
2022/05/27 10:30:23;;;;;;;0.40;0.40;;;20.80;1.00;;;;;;5016368;28;20176;-76
2022/05/27 10:32:49;;;;;;;0.40;0.40;;;20.90;1.00;;;;;;5016917;28;20199;-77
2022/05/27 10:35:21;;;;;;;0.20;0.20;;;21.10;1.00;;;;;;5014289;28;20176;-76
2022/05/27 10:38:10;;;;;;;0.40;0.40;;;21.80;1.00;;;;;;5013910;28;20177;-76
2022/05/27 10:40:51;;;;;;;0.30;0.30;;;22.50;1.00;;;;;;5014317;28;20181;-76
2022/05/27 10:43:33;;;;;;;0.30;0.30;;;23.00;1.00;;;;;;5014977;28;20187;-77
2022/05/27 10:46:04;;;;;;;0.30;0.30;;;23.20;1.00;;;;;;5015591;28;20253;-76
2022/05/27 10:49:02;;;;;;;0.30;0.30;;;23.10;1.00;;;;;;5013833;28;20176;-76
2022/05/27 10:51:55;;;;;;;0.40;0.40;;;23.00;1.00;;;;;;5013478;28;20200;-76
2022/05/27 10:54:50;;;;;;;0.30;0.30;;;22.90;1.00;;;;;;5016828;28;20179;-77
2022/05/27 11:03:51;;;;;;;0.30;0.30;;;22.50;1.00;;;;;;5013296;28;20195;-77
2022/05/27 11:06:31;;;;;;;0.30;0.30;;;22.30;1.00;;;;;;5003559;28;20187;-76
2022/05/27 11:09:17;;;;;;;0.30;0.30;;;22.20;1.00;;;;;;5012912;28;20180;-76
2022/05/27 11:12:21;;;;;;;0.40;0.40;;;21.70;1.00;;;;;;5005546;28;20208;-77
2022/05/27 11:15:13;;;;;;;0.30;0.30;;;22.00;1.00;;;;;;5012665;28;20271;-76
2022/05/27 11:18:09;;;;;;;0.40;0.40;;;22.20;1.00;;;;;;5012677;28;20279;-76
2022/05/27 11:21:16;;;;;;;0.30;0.30;;;22.30;1.00;;;;;;5012348;28;20259;-77
2022/05/27 11:24:11;;;;;;;0.30;0.30;;;22.20;1.00;;;;;;5013196;28;20613;-76
2022/05/27 11:27:02;;;;;;;0.30;0.30;;;21.90;1.00;;;;;;5012486;28;20184;-76
2022/05/27 11:29:39;;;;;;;0.30;0.30;;;21.90;1.00;;;;;;5011861;28;20177;-76
2022/05/27 11:32:26;;;;;;;0.30;0.30;;;21.80;1.00;;;;;;5012719;28;20196;-77
2022/05/27 11:35:07;;;;;;;0.40;0.40;;;21.60;1.00;;;;;;5012515;28;20188;-76
2022/05/27 11:37:54;;;;;;;0.30;0.30;;;21.40;1.00;;;;;;5012450;28;20215;-75
2022/05/27 11:40:32;;;;;;;0.30;0.30;;;21.10;1.00;;;;;;5011836;28;20181;-75
2022/05/27 11:43:20;;;;;;;0.30;0.30;;;21.00;1.00;;;;;;5012176;28;20254;-76
2022/05/27 11:46:08;;;;;;;0.30;0.30;;;21.10;1.00;;;;;;5012255;28;20169;-76
2022/05/27 11:48:55;;;;;;;0.30;0.30;;;21.10;1.00;;;;;;5005499;28;20181;-77
2022/05/27 11:51:39;;;;;;;0.30;0.30;;;20.90;1.00;;;;;;5012220;28;20192;-77
2022/05/27 11:54:34;;;;;;;0.20;0.20;;;20.80;1.00;;;;;;5012077;28;20185;-76
2022/05/27 11:57:12;;;;;;;0.40;0.40;;;20.80;1.00;;;;;;5011795;28;20251;-77
2022/05/27 11:59:47;;;;;;;0.30;0.30;;;21.00;1.00;;;;;;5011517;28;20587;-76
2022/05/27 12:02:34;;;;;;;0.40;0.40;;;21.10;1.00;;;;;;5011765;28;20299;-76
2022/05/27 12:05:08;;;;;;;0.30;0.30;;;21.60;1.00;;;;;;5012555;28;20172;-79
2022/05/27 12:07:44;;;;;;;0.30;0.30;;;22.00;1.00;;;;;;5011916;28;20539;-77
2022/05/27 12:10:22;;;;;;;0.40;0.40;;;21.90;1.00;;;;;;5011384;28;20184;-77
2022/05/27 12:13:05;;;;;;;0.30;0.30;;;22.00;1.00;;;;;;5011732;28;20211;-78
2022/05/27 12:15:39;;;;;;;0.30;0.30;;;22.20;1.00;;;;;;5012215;28;20299;-77
2022/05/27 12:18:10;;;;;;;0.30;0.30;;;22.20;1.00;;;;;;5012022;28;20259;-77
2022/05/27 12:20:37;;;;;;;0.30;0.30;;;22.50;1.00;;;;;;5011632;28;20191;-76
2022/05/27 12:23:08;;;;;;;0.40;0.40;;;22.90;1.00;;;;;;5011823;28;20173;-76
2022/05/27 12:25:38;;;;;;;0.30;0.30;;;23.30;1.00;;;;;;5011865;28;20220;-78
2022/05/27 12:28:05;;;;;;;0.30;0.30;;;23.50;1.00;;;;;;5013019;28;20189;-75
2022/05/27 12:30:40;;;;;;;0.40;0.40;;;23.40;1.00;;;;;;5018889;28;20176;-75
2022/05/27 12:33:09;;;;;;;0.37;0.37;;;23.70;1.00;;;;;;5015086;28;20180;-76
2022/05/27 12:35:34;;;;;;;0.33;0.33;;;24.00;1.00;;;;;;5015411;28;20208;-77
2022/05/27 12:38:09;;;;;;;0.30;0.30;;;23.90;1.00;;;;;;5014751;28;20672;-76
2022/05/27 12:41:01;;;;;;;0.30;0.30;;;24.30;1.00;;;;;;5013320;28;20645;-76
2022/05/27 12:43:54;;;;;;;0.40;0.40;;;24.40;1.00;;;;;;5013387;28;20177;-76
2022/05/27 12:46:29;;;;;;;0.30;0.30;;;24.50;1.00;;;;;;5015089;28;20201;-77
2022/05/27 12:49:23;;;;;;;0.20;0.20;;;23.80;1.00;;;;;;5014761;28;20176;-75
2022/05/27 12:51:49;;;;;;;0.33;0.33;;;23.40;1.00;;;;;;5013046;28;20568;-74
2022/05/27 12:54:42;;;;;;;0.30;0.30;;;23.30;1.00;;;;;;5015232;28;20180;-75
2022/05/27 13:03:33;;;;;;;0.30;0.30;;;22.10;1.00;;;;;;5015298;28;20302;-75
2022/05/27 13:06:18;;;;;;;0.30;0.30;;;21.90;1.00;;;;;;5016363;28;20200;-75
2022/05/27 13:08:50;;;;;;;0.30;0.30;;;21.70;1.00;;;;;;5013417;28;20184;-77
2022/05/27 13:11:22;;;;;;;0.30;0.30;;;21.70;1.00;;;;;;5016036;28;20204;-77
2022/05/27 13:13:49;;;;;;;0.30;0.30;;;21.60;1.00;;;;;;5015111;28;20173;-76
2022/05/27 13:16:48;;;;;;;0.27;0.27;;;21.70;1.00;;;;;;5014702;28;20223;-76
2022/05/27 13:19:26;;;;;;;0.20;0.20;;;21.70;1.00;;;;;;4995339;28;20657;-75
2022/05/27 13:21:51;;;;;;;0.30;0.30;;;21.70;1.00;;;;;;4996915;28;20199;-75
2022/05/27 13:24:17;;;;;;;0.30;0.30;;;21.70;1.00;;;;;;5011858;28;20569;-76
2022/05/27 13:27:04;;;;;;;0.30;0.30;;;21.60;1.00;;;;;;5014778;28;20277;-75
2022/05/27 13:29:38;;;;;;;0.30;0.30;;;21.50;1.00;;;;;;5014794;28;20184;-76
2022/05/27 13:32:11;;;;;;;0.30;0.30;;;21.10;1.00;;;;;;5014904;28;20200;-77
2022/05/27 13:34:55;;;;;;;0.30;0.30;;;20.80;1.00;;;;;;5014745;28;20660;-76
2022/05/27 13:37:41;;;;;;;0.40;0.40;;;20.80;1.00;;;;;;5014548;28;20754;-76
2022/05/27 13:40:21;;;;;;;0.30;0.30;;;20.70;1.00;;;;;;4997125;28;20180;-77
2022/05/27 13:42:49;;;;;;;0.30;0.30;;;20.50;1.00;;;;;;5011900;28;20249;-76
2022/05/27 13:45:29;;;;;;;0.30;0.30;;;20.50;1.00;;;;;;5014557;28;20176;-75
2022/05/27 13:48:00;;;;;;;0.30;0.30;;;20.50;1.00;;;;;;5014913;28;20211;-76
2022/05/27 13:50:33;;;;;;;0.30;0.30;;;20.50;1.00;;;;;;5013833;28;20723;-75
2022/05/27 13:53:14;;;;;;;0.30;0.30;;;20.40;1.00;;;;;;5012648;28;20262;-76
2022/05/27 13:55:39;;;;;;;0.30;0.30;;;20.40;1.00;;;;;;5014422;28;20212;-75
2022/05/27 13:58:06;;;;;;;0.30;0.30;;;20.50;1.00;;;;;;5014282;28;20198;-75